createdAt,value
2022-12-04T00:01:30.608Z,20.51
2022-12-04T00:03:58.951Z,20.97
2022-12-04T00:06:25.950Z,21.08
2022-12-04T00:08:52.757Z,21.40
2022-12-04T00:11:24.371Z,22.21
2022-12-04T00:13:51.254Z,22.21
2022-12-04T00:16:20.920Z,22.15
2022-12-04T00:18:48.979Z,22.29
2022-12-04T00:21:16.060Z,21.93
2022-12-04T00:23:43.008Z,21.60
2022-12-04T00:26:27.363Z,21.90
2022-12-04T00:28:54.568Z,21.57
2022-12-04T00:31:24.057Z,21.45
2022-12-04T00:33:50.824Z,21.93
2022-12-04T00:36:19.400Z,21.87
2022-12-04T00:38:46.145Z,21.16
2022-12-04T00:41:13.918Z,21.30
2022-12-04T00:43:40.779Z,21.45
2022-12-04T00:46:08.136Z,20.26
2022-12-04T00:48:35.071Z,20.27
2022-12-04T00:51:04.923Z,20.46
2022-12-04T00:53:32.927Z,20.28
2022-12-04T00:55:59.715Z,19.94
2022-12-04T00:58:27.258Z,19.89
2022-12-04T01:01:16.557Z,19.95
2022-12-04T01:03:43.860Z,19.37
2022-12-04T01:06:35.952Z,19.11
2022-12-04T01:09:04.952Z,19.81
2022-12-04T01:11:31.859Z,20.63
2022-12-04T01:14:00.307Z,20.74
2022-12-04T01:16:34.166Z,20.75
2022-12-04T01:19:01.391Z,21.13
2022-12-04T01:21:28.241Z,20.51
2022-12-04T01:23:55.240Z,20.13
2022-12-04T01:26:22.032Z,20.82
2022-12-04T01:28:48.877Z,20.05
2022-12-04T01:31:17.653Z,21.15
2022-12-04T01:33:44.994Z,20.72
2022-12-04T01:36:18.752Z,21.13
2022-12-04T01:38:45.642Z,20.98
2022-12-04T01:41:12.911Z,21.11
2022-12-04T01:43:40.268Z,20.71
2022-12-04T01:46:07.305Z,20.11
2022-12-04T01:48:52.838Z,20.70
2022-12-04T01:51:24.890Z,20.66
2022-12-04T01:54:02.861Z,20.21
2022-12-04T01:56:49.165Z,20.87
2022-12-04T01:59:16.993Z,20.82
2022-12-04T02:01:50.833Z,21.64
2022-12-04T02:04:17.725Z,21.26
2022-12-04T02:06:44.640Z,21.01
2022-12-04T02:09:11.439Z,20.84
2022-12-04T02:11:44.072Z,20.57
2022-12-04T02:14:34.892Z,20.63
2022-12-04T02:17:22.883Z,20.63
2022-12-04T02:20:08.387Z,19.96
2022-12-04T02:23:03.862Z,20.01
2022-12-04T02:26:00.918Z,19.39
2022-12-04T02:29:22.256Z,19.47
2022-12-04T02:31:58.064Z,19.78
2022-12-04T02:35:00.252Z,19.62
2022-12-04T02:37:33.520Z,19.38
2022-12-04T02:40:30.633Z,19.05
2022-12-04T02:43:03.905Z,19.18
2022-12-04T02:45:33.651Z,19.56
2022-12-04T02:48:01.348Z,19.91
2022-12-04T02:50:28.586Z,19.67
2022-12-04T02:52:59.450Z,19.62
2022-12-04T02:55:35.342Z,20.13
2022-12-04T02:58:06.246Z,20.00
2022-12-04T03:00:33.016Z,20.13
2022-12-04T03:03:02.031Z,20.72
2022-12-04T03:05:38.178Z,20.51
2022-12-04T03:08:07.607Z,21.17
2022-12-04T03:10:43.957Z,21.45
2022-12-04T03:13:16.471Z,21.62
2022-12-04T03:15:57.240Z,22.09
2022-12-04T03:18:29.490Z,21.75
2022-12-04T03:21:02.765Z,21.61
2022-12-04T03:23:35.576Z,22.28
2022-12-04T03:26:21.248Z,22.43
2022-12-04T03:28:55.326Z,22.01
2022-12-04T03:31:36.212Z,21.83
2022-12-04T03:34:03.597Z,22.20
2022-12-04T03:36:39.640Z,22.54
2022-12-04T03:39:16.018Z,23.08
2022-12-04T03:42:03.984Z,23.15
2022-12-04T03:44:46.625Z,22.96
2022-12-04T03:47:18.948Z,22.82
2022-12-04T03:50:01.170Z,22.68
2022-12-04T03:52:44.158Z,23.01
2022-12-04T03:55:24.534Z,23.52
2022-12-04T03:57:51.414Z,22.97
2022-12-04T04:00:20.243Z,23.39
2022-12-04T04:02:53.063Z,23.01
2022-12-04T04:05:19.949Z,23.81
2022-12-04T04:07:54.986Z,24.01
2022-12-04T04:10:24.345Z,23.45
2022-12-04T04:13:13.390Z,22.99
2022-12-04T04:16:00.456Z,22.88
2022-12-04T04:18:27.858Z,22.64
2022-12-04T04:20:57.659Z,22.91
2022-12-04T04:23:24.738Z,23.43
2022-12-04T04:25:52.602Z,22.68
2022-12-04T04:28:29.488Z,23.00
2022-12-04T04:30:57.600Z,23.21
2022-12-04T04:33:25.464Z,23.47
2022-12-04T04:36:04.338Z,23.67
2022-12-04T04:38:45.549Z,23.25
2022-12-04T04:41:19.529Z,23.43
2022-12-04T04:44:10.124Z,23.44
2022-12-04T04:46:41.310Z,23.17
2022-12-04T04:49:09.156Z,22.48
2022-12-04T04:51:36.328Z,22.41
2022-12-04T04:54:06.317Z,22.66
2022-12-04T04:56:41.521Z,22.92
2022-12-04T04:59:08.241Z,22.26
2022-12-04T05:01:35.323Z,22.46
2022-12-04T05:04:03.877Z,22.68
2022-12-04T05:06:31.172Z,21.91
2022-12-04T05:08:58.299Z,22.43
2022-12-04T05:11:25.083Z,22.48
2022-12-04T05:13:52.061Z,22.39
2022-12-04T05:16:19.099Z,22.32
2022-12-04T05:18:46.883Z,22.71
2022-12-04T05:21:13.627Z,23.31
2022-12-04T05:23:40.728Z,23.27
2022-12-04T05:26:08.388Z,22.93
2022-12-04T05:28:35.970Z,22.80
2022-12-04T05:31:03.477Z,23.45
2022-12-04T05:33:30.943Z,23.27
2022-12-04T05:36:02.192Z,23.21
2022-12-04T05:38:29.111Z,22.65
2022-12-04T05:40:58.261Z,23.56
2022-12-04T05:43:25.202Z,22.92
2022-12-04T05:45:52.290Z,23.03
2022-12-04T05:48:19.386Z,23.67
2022-12-04T05:50:46.322Z,23.33
2022-12-04T05:53:14.091Z,22.59
2022-12-04T05:55:41.001Z,22.73
2022-12-04T05:58:08.928Z,22.51
2022-12-04T06:00:36.160Z,22.24
2022-12-04T06:03:03.065Z,22.69
2022-12-04T06:05:30.032Z,22.26
2022-12-04T06:07:56.758Z,23.15
2022-12-04T06:10:23.786Z,24.90
2022-12-04T06:12:50.523Z,22.62
2022-12-04T06:15:18.402Z,23.58
2022-12-04T06:17:46.198Z,22.53
2022-12-04T06:20:14.254Z,23.18
2022-12-04T06:22:41.083Z,23.62
2022-12-04T06:25:08.524Z,23.92
2022-12-04T06:27:35.337Z,24.47
2022-12-04T06:30:02.673Z,25.30
2022-12-04T06:32:32.380Z,25.30
2022-12-04T06:34:59.886Z,24.90
2022-12-04T06:37:27.314Z,25.85
2022-12-04T06:39:55.774Z,25.57
2022-12-04T06:42:22.719Z,25.57
2022-12-04T06:44:49.445Z,25.36
2022-12-04T06:47:16.173Z,25.69
2022-12-04T06:49:43.021Z,25.44
2022-12-04T06:52:10.027Z,25.33
2022-12-04T06:54:36.799Z,25.75
2022-12-04T06:57:03.538Z,26.46
2022-12-04T06:59:31.746Z,25.51
2022-12-04T07:02:36.653Z,25.72
2022-12-04T07:05:05.542Z,26.47
2022-12-04T07:07:32.759Z,25.45
2022-12-04T07:09:59.457Z,26.17
2022-12-04T07:12:26.219Z,26.12
2022-12-04T07:14:55.749Z,25.49
2022-12-04T07:17:22.551Z,25.87
2022-12-04T07:19:50.357Z,26.19
2022-12-04T07:22:19.358Z,26.48
2022-12-04T07:24:46.145Z,26.06
2022-12-04T07:27:12.967Z,26.05
2022-12-04T07:29:40.088Z,26.12
2022-12-04T07:32:07.284Z,26.25
2022-12-04T07:34:34.496Z,26.29
2022-12-04T07:37:06.507Z,26.69
2022-12-04T07:39:33.646Z,26.03
2022-12-04T07:42:03.567Z,26.28
2022-12-04T07:44:34.374Z,26.34
2022-12-04T07:47:01.232Z,25.74
2022-12-04T07:49:28.185Z,26.04
2022-12-04T07:51:56.769Z,26.22
2022-12-04T07:54:23.875Z,26.38
2022-12-04T07:56:51.310Z,26.94
2022-12-04T07:59:18.313Z,26.97
2022-12-04T08:01:45.275Z,27.66
2022-12-04T08:04:12.130Z,26.86
2022-12-04T08:06:38.989Z,26.73
2022-12-04T08:09:09.773Z,27.52
2022-12-04T08:11:37.304Z,26.96
2022-12-04T08:14:11.135Z,26.76
2022-12-04T08:16:37.930Z,26.89
2022-12-04T08:19:05.180Z,26.39
2022-12-04T08:21:32.051Z,25.62
2022-12-04T08:23:59.411Z,26.72
2022-12-04T08:26:28.983Z,26.32
2022-12-04T08:28:56.248Z,25.47
2022-12-04T08:31:25.345Z,25.36
2022-12-04T08:33:57.522Z,24.75
2022-12-04T08:36:24.898Z,25.82
2022-12-04T08:38:52.022Z,25.49
2022-12-04T08:41:20.121Z,25.86
2022-12-04T08:43:47.008Z,25.99
2022-12-04T08:46:15.121Z,26.24
2022-12-04T08:48:42.410Z,26.07
2022-12-04T08:51:16.304Z,27.23
2022-12-04T08:53:44.872Z,26.17
2022-12-04T08:56:12.051Z,27.49
2022-12-04T08:58:39.224Z,25.55
2022-12-04T09:01:08.490Z,24.76
2022-12-04T09:03:35.770Z,24.40
2022-12-04T09:06:03.936Z,24.19
2022-12-04T09:08:31.537Z,25.71
2022-12-04T09:11:06.085Z,24.83
2022-12-04T09:13:35.650Z,25.33
2022-12-04T09:16:12.023Z,24.68
2022-12-04T09:18:39.420Z,24.80
2022-12-04T09:21:08.021Z,25.24
2022-12-04T09:23:38.221Z,25.00
2022-12-04T09:26:31.707Z,26.16
2022-12-04T09:29:02.310Z,24.88
2022-12-04T09:31:30.400Z,25.01
2022-12-04T09:34:00.833Z,24.81
2022-12-04T09:36:28.032Z,25.27
2022-12-04T09:38:55.873Z,25.38
2022-12-04T09:41:53.622Z,26.25
2022-12-04T09:44:41.949Z,26.37
2022-12-04T09:47:28.984Z,25.31
2022-12-04T09:49:56.761Z,26.45
2022-12-04T09:52:58.667Z,27.91
2022-12-04T09:55:43.771Z,26.65
2022-12-04T09:58:15.550Z,26.79
2022-12-04T10:00:43.471Z,27.09
2022-12-04T10:03:24.831Z,26.71
2022-12-04T10:06:02.585Z,26.64
2022-12-04T10:08:37.245Z,26.80
2022-12-04T10:11:56.665Z,27.10
2022-12-04T10:14:47.409Z,26.22
2022-12-04T10:17:51.717Z,24.24
2022-12-04T10:20:52.028Z,22.83
2022-12-04T10:24:09.767Z,22.48
2022-12-04T10:26:39.825Z,22.64
2022-12-04T10:29:33.860Z,21.62
2022-12-04T10:32:24.542Z,23.00
2022-12-04T10:34:54.445Z,23.51
2022-12-04T10:37:27.310Z,23.43
2022-12-04T10:39:57.045Z,23.58
2022-12-04T10:42:48.398Z,24.28
2022-12-04T10:45:15.855Z,23.47
2022-12-04T10:48:13.585Z,22.17
2022-12-04T10:50:40.585Z,21.49
2022-12-04T10:53:13.434Z,22.32
2022-12-04T10:55:40.925Z,21.59
2022-12-04T10:58:22.808Z,21.30
2022-12-04T11:01:11.575Z,20.41
2022-12-04T11:03:41.290Z,20.13
2022-12-04T11:06:10.456Z,20.87
2022-12-04T11:08:49.569Z,20.85
2022-12-04T11:11:22.580Z,20.54
2022-12-04T11:14:15.846Z,20.45
2022-12-04T11:16:44.950Z,20.55
2022-12-04T11:19:29.630Z,19.89
2022-12-04T11:21:58.998Z,20.57
2022-12-04T11:24:36.574Z,20.54
2022-12-04T11:27:31.013Z,21.23
2022-12-04T11:30:16.040Z,21.15
2022-12-04T11:32:44.452Z,21.29
2022-12-04T11:35:28.542Z,21.38
2022-12-04T11:38:29.413Z,21.31
2022-12-04T11:40:57.465Z,22.09
2022-12-04T11:43:28.750Z,21.91
2022-12-04T11:46:07.009Z,22.53
2022-12-04T11:48:44.310Z,23.02
2022-12-04T11:54:48.150Z,23.54
2022-12-04T11:57:58.113Z,22.27
2022-12-04T12:00:31.109Z,22.39
2022-12-04T12:03:12.978Z,21.90
2022-12-04T12:06:05.226Z,22.20
2022-12-04T12:09:36.577Z,23.14
2022-12-04T12:12:49.604Z,23.25
2022-12-04T12:15:43.166Z,21.28
2022-12-04T12:18:56.116Z,21.61
2022-12-04T12:22:03.602Z,22.79
2022-12-04T12:24:58.682Z,21.82
2022-12-04T12:28:04.950Z,23.39
2022-12-04T12:30:57.364Z,24.28
2022-12-04T12:33:35.472Z,22.96
2022-12-04T12:36:09.927Z,24.75
2022-12-04T12:38:48.784Z,23.36
2022-12-04T12:41:28.077Z,24.45
2022-12-04T12:44:36.356Z,23.91
2022-12-04T12:47:17.797Z,22.15
2022-12-04T12:50:36.958Z,23.43
2022-12-04T12:53:16.405Z,23.39
2022-12-04T12:55:54.307Z,23.35
2022-12-04T12:58:48.884Z,24.02
2022-12-04T13:01:17.371Z,24.87
2022-12-04T13:04:05.980Z,24.99
2022-12-04T13:06:42.121Z,23.79
2022-12-04T13:09:33.550Z,23.57
2022-12-04T13:12:11.523Z,23.19
2022-12-04T13:14:38.390Z,22.33
2022-12-04T13:17:21.672Z,22.12
2022-12-04T13:19:57.761Z,20.69
2022-12-04T13:22:56.186Z,20.89
2022-12-04T13:26:05.724Z,21.24
2022-12-04T13:28:47.564Z,21.07
2022-12-04T13:31:38.521Z,20.93
2022-12-04T13:34:23.624Z,26.45
2022-12-04T13:37:25.638Z,22.24
2022-12-04T13:40:10.377Z,22.08
2022-12-04T13:43:12.865Z,22.39
2022-12-04T13:45:44.411Z,21.03
2022-12-04T13:48:12.245Z,21.80
2022-12-04T13:50:39.656Z,21.04
2022-12-04T13:53:30.914Z,20.68
2022-12-04T13:56:00.864Z,21.12
2022-12-04T13:58:33.444Z,20.51
2022-12-04T14:01:08.917Z,20.94
2022-12-04T14:03:49.458Z,20.45
2022-12-04T14:06:37.000Z,20.28
2022-12-04T14:09:08.964Z,19.88
2022-12-04T14:11:50.852Z,21.09
2022-12-04T14:14:44.431Z,21.81
2022-12-04T14:17:27.836Z,20.98
2022-12-04T14:20:07.816Z,21.27
2022-12-04T14:22:39.839Z,22.03
2022-12-04T14:25:24.481Z,24.27
2022-12-04T14:27:52.744Z,22.66
2022-12-04T14:30:36.694Z,22.60
2022-12-04T14:33:20.940Z,21.96
2022-12-04T14:35:56.208Z,23.08
2022-12-04T14:38:24.320Z,22.86
2022-12-04T14:40:54.787Z,22.97
2022-12-04T14:43:26.737Z,23.16
2022-12-04T14:46:33.407Z,22.67
2022-12-04T14:49:30.911Z,22.56
2022-12-04T14:52:25.229Z,22.15
2022-12-04T14:55:15.825Z,21.66
2022-12-04T14:58:05.397Z,22.10
2022-12-04T15:00:32.378Z,22.25
2022-12-04T15:03:00.654Z,21.85
2022-12-04T15:05:31.018Z,22.70
2022-12-04T15:08:00.162Z,21.90
2022-12-04T15:10:31.773Z,22.01
2022-12-04T15:13:01.579Z,22.59
2022-12-04T15:15:29.476Z,22.84
2022-12-04T15:18:16.615Z,23.27
2022-12-04T15:21:12.517Z,22.95
2022-12-04T15:23:45.327Z,22.28
2022-12-04T15:26:49.219Z,22.03
2022-12-04T15:29:25.414Z,22.86
2022-12-04T15:31:54.632Z,22.75
2022-12-04T15:34:21.767Z,23.77
2022-12-04T15:37:08.687Z,22.81
2022-12-04T15:39:59.556Z,23.00
2022-12-04T15:42:29.407Z,22.77
2022-12-04T15:44:57.744Z,22.21
2022-12-04T15:47:25.508Z,22.65
2022-12-04T15:49:52.345Z,21.88
2022-12-04T15:52:20.817Z,22.04
2022-12-04T15:54:59.726Z,22.37
2022-12-04T15:57:33.465Z,22.06
2022-12-04T16:00:01.051Z,22.05
2022-12-04T16:02:42.059Z,21.85
2022-12-04T16:05:22.161Z,23.26
2022-12-04T16:08:17.465Z,38.26
2022-12-04T16:10:45.022Z,26.13
2022-12-04T16:13:26.987Z,44.77
2022-12-04T16:15:56.988Z,24.48
2022-12-04T16:18:24.664Z,26.64
2022-12-04T16:20:54.592Z,29.32
2022-12-04T16:23:23.603Z,56.46
2022-12-04T16:25:53.551Z,54.60
2022-12-04T16:28:20.976Z,43.47
2022-12-04T16:30:47.794Z,28.45
2022-12-04T16:33:15.138Z,52.25
2022-12-04T16:35:44.670Z,76.52
2022-12-04T16:38:15.676Z,45.04
2022-12-04T16:40:43.900Z,31.88
2022-12-04T16:43:17.943Z,28.02
2022-12-04T16:45:46.948Z,26.91
2022-12-04T16:48:22.946Z,23.94
2022-12-04T16:50:51.011Z,23.48
2022-12-04T16:53:18.874Z,23.02
2022-12-04T16:55:48.648Z,23.09
2022-12-04T16:58:16.634Z,22.97
2022-12-04T17:00:44.515Z,23.20
2022-12-04T17:03:28.466Z,22.55
2022-12-04T17:05:55.385Z,22.30
2022-12-04T17:08:22.495Z,22.40
2022-12-04T17:10:49.608Z,22.32
2022-12-04T17:13:20.523Z,21.99
2022-12-04T17:15:53.458Z,22.36
2022-12-04T17:18:21.468Z,23.16
2022-12-04T17:20:48.862Z,25.61
2022-12-04T17:23:18.725Z,26.14
2022-12-04T17:25:46.682Z,24.47
2022-12-04T17:28:13.725Z,24.70
2022-12-04T17:30:47.240Z,25.37
2022-12-04T17:33:14.418Z,24.79
2022-12-04T17:35:44.088Z,24.85
2022-12-04T17:38:13.727Z,24.55
2022-12-04T17:40:42.738Z,24.24
2022-12-04T17:43:09.724Z,25.34
2022-12-04T17:45:40.165Z,26.10
2022-12-04T17:48:09.994Z,25.36
2022-12-04T17:50:39.947Z,26.04
2022-12-04T17:53:06.987Z,25.53
2022-12-04T17:55:34.246Z,26.83
2022-12-04T17:58:01.384Z,26.70
2022-12-04T18:00:31.251Z,26.75
2022-12-04T18:03:04.198Z,72.28
2022-12-04T18:05:34.121Z,35.16
2022-12-04T18:08:03.856Z,28.45
2022-12-04T18:10:33.151Z,29.38
2022-12-04T18:13:04.172Z,26.95
2022-12-04T18:18:43.517Z,28.24
2022-12-04T18:21:13.294Z,54.36
2022-12-04T18:23:46.145Z,29.23
2022-12-04T18:26:17.891Z,54.39
2022-12-04T18:28:45.084Z,30.95
2022-12-04T18:31:18.431Z,31.39
2022-12-04T18:33:48.436Z,36.34
2022-12-04T18:36:18.650Z,33.72
2022-12-04T18:38:46.517Z,28.09
2022-12-04T18:41:19.134Z,27.00
2022-12-04T18:43:46.161Z,27.13
2022-12-04T18:46:19.273Z,31.12
2022-12-04T18:49:01.406Z,27.46
2022-12-04T18:51:36.700Z,26.64
2022-12-04T18:54:09.552Z,26.75
2022-12-04T18:56:52.098Z,26.84
2022-12-04T18:59:25.947Z,29.26
2022-12-04T19:01:57.635Z,32.95
2022-12-04T19:04:25.653Z,39.10
2022-12-04T19:06:54.684Z,27.78
2022-12-04T19:12:15.197Z,27.14
2022-12-04T19:14:47.932Z,38.71
2022-12-04T19:17:16.514Z,33.25
2022-12-04T19:19:45.417Z,39.72
2022-12-04T19:22:25.430Z,30.81
2022-12-04T19:24:55.138Z,80.67
2022-12-04T19:27:27.963Z,30.25
2022-12-04T19:29:55.654Z,26.47
2022-12-04T19:32:22.649Z,34.14
2022-12-04T19:34:52.301Z,29.88
2022-12-04T19:37:22.353Z,29.16
2022-12-04T19:39:52.245Z,26.19
2022-12-04T19:42:19.735Z,26.58
2022-12-04T19:44:48.772Z,26.02
2022-12-04T19:47:19.427Z,24.97
2022-12-04T19:49:48.398Z,24.87
2022-12-04T19:52:15.263Z,25.64
2022-12-04T19:54:42.332Z,25.02
2022-12-04T19:57:09.740Z,24.35
2022-12-04T19:59:40.567Z,25.48
2022-12-04T20:02:11.305Z,24.79
2022-12-04T20:04:38.800Z,26.45
2022-12-04T20:07:06.162Z,28.66
2022-12-04T20:09:33.308Z,25.60
2022-12-04T20:12:00.564Z,25.32
2022-12-04T20:14:28.588Z,25.33
2022-12-04T20:16:55.943Z,25.07
2022-12-04T20:19:23.618Z,29.81
2022-12-04T20:21:54.806Z,27.86
2022-12-04T20:24:25.246Z,25.92
2022-12-04T20:26:52.458Z,25.99
2022-12-04T20:29:19.863Z,25.05
2022-12-04T20:31:49.539Z,25.23
2022-12-04T20:34:25.321Z,25.65
2022-12-04T20:36:52.237Z,24.65
2022-12-04T20:39:20.284Z,25.49
2022-12-04T20:41:56.853Z,25.24
2022-12-04T20:44:26.394Z,25.96
2022-12-04T20:46:56.424Z,25.61
2022-12-04T20:49:50.575Z,24.53
2022-12-04T20:52:20.145Z,25.67
2022-12-04T20:54:47.531Z,25.02
2022-12-04T20:57:14.565Z,25.68
2022-12-04T20:59:41.634Z,25.91
2022-12-04T21:02:11.901Z,26.75
2022-12-04T21:04:39.075Z,27.28
2022-12-04T21:07:11.838Z,27.45
2022-12-04T21:09:39.184Z,27.23
2022-12-04T21:12:06.304Z,27.35
2022-12-04T21:14:34.370Z,27.66
2022-12-04T21:17:33.304Z,27.97
2022-12-04T21:20:04.300Z,28.94
2022-12-04T21:22:38.150Z,29.44
2022-12-04T21:25:05.552Z,28.47
2022-12-04T21:27:32.570Z,28.59
2022-12-04T21:29:59.677Z,27.77
2022-12-04T21:32:27.473Z,26.37
2022-12-04T21:34:54.523Z,24.44
2022-12-04T21:37:23.331Z,22.51
2022-12-04T21:39:50.293Z,20.06
2022-12-04T21:42:17.398Z,17.73
2022-12-04T21:44:44.524Z,16.48
2022-12-04T21:47:12.547Z,16.84
2022-12-04T21:49:45.548Z,14.02
2022-12-04T21:52:12.633Z,16.25
2022-12-04T21:54:39.612Z,15.93
2022-12-04T21:57:07.843Z,15.09
2022-12-04T21:59:35.577Z,14.11
2022-12-04T22:02:02.754Z,13.48
2022-12-04T22:04:29.902Z,12.63
2022-12-04T22:06:57.078Z,10.37
2022-12-04T22:09:27.564Z,10.81
2022-12-04T22:11:55.466Z,9.41
2022-12-04T22:14:22.285Z,9.33
2022-12-04T22:16:52.796Z,8.92
2022-12-04T22:19:19.820Z,8.61
2022-12-04T22:22:09.586Z,8.61
2022-12-04T22:24:36.718Z,8.04
2022-12-04T22:27:03.889Z,7.98
2022-12-04T22:32:17.943Z,7.50
2022-12-04T22:34:47.447Z,6.93
2022-12-04T22:37:14.491Z,7.71
2022-12-04T22:39:42.965Z,7.90
2022-12-04T22:42:14.668Z,7.47
2022-12-04T22:44:46.521Z,7.71
2022-12-04T22:47:16.145Z,7.41
2022-12-04T22:49:43.250Z,6.70
2022-12-04T22:52:12.293Z,6.70
2022-12-04T22:54:39.068Z,7.00
2022-12-04T22:57:06.588Z,7.13
2022-12-04T22:59:33.639Z,6.89
2022-12-04T23:02:00.769Z,7.49
2022-12-04T23:04:28.844Z,7.90
2022-12-04T23:06:57.233Z,8.25
2022-12-04T23:09:24.283Z,8.18
2022-12-04T23:11:54.452Z,8.13
2022-12-04T23:14:22.363Z,8.14
2022-12-04T23:16:49.195Z,8.17
2022-12-04T23:19:17.396Z,8.66
2022-12-04T23:21:55.139Z,9.11
2022-12-04T23:24:23.932Z,8.97
2022-12-04T23:26:52.509Z,9.36
2022-12-04T23:29:44.973Z,8.84
2022-12-04T23:32:06.817Z,9.54
2022-12-04T23:34:34.819Z,9.24
2022-12-04T23:37:01.513Z,9.17
2022-12-04T23:39:29.573Z,9.15
2022-12-04T23:41:57.329Z,9.33
2022-12-04T23:44:25.651Z,8.98
2022-12-04T23:46:52.825Z,9.29
2022-12-04T23:49:19.939Z,9.38
2022-12-04T23:51:47.241Z,9.36
2022-12-04T23:54:14.772Z,9.53
2022-12-04T23:56:41.809Z,8.96
2022-12-04T23:59:09.774Z,9.07
